createdAt,value
2023-05-02T00:01:19.084Z,13.80
2023-05-02T00:03:46.029Z,16.02
2023-05-02T00:06:13.018Z,18.13
2023-05-02T00:08:40.363Z,16.48
2023-05-02T00:11:07.117Z,14.60
2023-05-02T00:13:33.811Z,22.52
2023-05-02T00:16:00.554Z,20.67
2023-05-02T00:18:29.576Z,21.25
2023-05-02T00:20:57.026Z,18.85
2023-05-02T00:23:24.102Z,19.20
2023-05-02T00:25:51.239Z,18.65
2023-05-02T00:28:18.674Z,19.00
2023-05-02T00:30:46.559Z,19.75
2023-05-02T00:33:14.895Z,12.05
2023-05-02T00:35:41.919Z,13.88
2023-05-02T00:38:09.069Z,15.73
2023-05-02T00:40:45.967Z,17.23
2023-05-02T00:43:12.733Z,11.05
2023-05-02T00:45:43.461Z,16.25
2023-05-02T00:48:11.147Z,12.43
2023-05-02T00:50:40.300Z,13.88
2023-05-02T00:53:08.208Z,14.73
2023-05-02T00:55:35.404Z,17.05
2023-05-02T00:58:22.488Z,14.40
2023-05-02T01:01:13.814Z,12.93
2023-05-02T01:04:04.778Z,14.60
2023-05-02T01:06:57.404Z,13.27
2023-05-02T01:09:30.403Z,13.57
2023-05-02T01:12:03.298Z,14.18
2023-05-02T01:14:33.306Z,14.98
2023-05-02T01:17:05.629Z,14.00
2023-05-02T01:19:36.660Z,16.10
2023-05-02T01:22:09.445Z,13.77
2023-05-02T01:25:00.987Z,15.13
2023-05-02T01:28:02.397Z,19.92
2023-05-02T01:30:33.306Z,15.70
2023-05-02T01:33:02.124Z,19.88
2023-05-02T01:35:32.823Z,14.30
2023-05-02T01:38:01.258Z,12.93
2023-05-02T01:40:29.846Z,15.90
2023-05-02T01:42:58.298Z,14.82
2023-05-02T01:45:26.217Z,15.48
2023-05-02T01:47:54.642Z,16.60
2023-05-02T01:50:25.011Z,12.85
2023-05-02T01:52:54.078Z,15.25
2023-05-02T01:55:21.905Z,18.98
2023-05-02T01:57:50.775Z,18.90
2023-05-02T02:00:19.456Z,15.10
2023-05-02T02:02:47.916Z,17.48
2023-05-02T02:05:16.167Z,16.13
2023-05-02T02:07:44.000Z,17.00
2023-05-02T02:10:11.194Z,16.58
2023-05-02T02:12:51.038Z,16.50
2023-05-02T02:15:38.397Z,15.38
2023-05-02T02:18:13.419Z,17.60
2023-05-02T02:20:45.144Z,18.75
2023-05-02T02:23:13.410Z,17.85
2023-05-02T02:25:42.240Z,19.48
2023-05-02T02:28:08.974Z,18.10
2023-05-02T02:30:35.701Z,17.65
2023-05-02T02:33:02.490Z,18.23
2023-05-02T02:35:35.864Z,21.20
2023-05-02T02:38:10.789Z,22.05
2023-05-02T02:40:55.049Z,20.77
2023-05-02T02:43:33.007Z,17.08
2023-05-02T02:46:21.198Z,21.35
2023-05-02T02:49:30.326Z,20.38
2023-05-02T02:52:19.797Z,18.60
2023-05-02T02:54:59.372Z,19.40
2023-05-02T02:57:37.582Z,18.97
2023-05-02T03:00:25.894Z,19.42
2023-05-02T03:02:54.229Z,19.63
2023-05-02T03:05:25.396Z,18.40
2023-05-02T03:07:52.473Z,19.42
2023-05-02T03:10:19.145Z,16.98
2023-05-02T03:12:45.971Z,18.38
2023-05-02T03:15:48.509Z,21.15
2023-05-02T03:18:15.335Z,23.67
2023-05-02T03:20:42.033Z,18.83
2023-05-02T03:23:08.829Z,18.30
2023-05-02T03:25:35.532Z,18.48
2023-05-02T03:28:02.734Z,20.23
2023-05-02T03:30:29.412Z,17.20
2023-05-02T03:32:56.119Z,17.40
2023-05-02T03:35:23.148Z,21.48
2023-05-02T03:37:50.772Z,17.00
2023-05-02T03:40:22.000Z,20.05
2023-05-02T03:42:48.796Z,19.65
2023-05-02T03:45:15.555Z,22.38
2023-05-02T03:47:42.638Z,20.70
2023-05-02T03:50:09.690Z,25.63
2023-05-02T03:52:36.520Z,35.65
2023-05-02T03:55:04.084Z,24.02
2023-05-02T03:57:31.122Z,20.80
2023-05-02T03:59:58.801Z,14.95
2023-05-02T04:02:25.925Z,17.15
2023-05-02T04:04:52.708Z,27.08
2023-05-02T04:07:19.575Z,19.42
2023-05-02T04:09:46.629Z,22.75
2023-05-02T04:12:15.472Z,23.17
2023-05-02T04:14:42.206Z,23.02
2023-05-02T04:17:09.259Z,20.63
2023-05-02T04:19:36.212Z,22.48
2023-05-02T04:22:03.621Z,18.77
2023-05-02T04:24:30.542Z,22.23
2023-05-02T04:26:57.281Z,22.05
2023-05-02T04:29:24.111Z,21.55
2023-05-02T04:31:52.192Z,16.55
2023-05-02T04:34:18.897Z,17.98
2023-05-02T04:36:46.879Z,17.42
2023-05-02T04:39:14.997Z,18.52
2023-05-02T04:41:45.820Z,18.63
2023-05-02T04:44:12.508Z,19.80
2023-05-02T04:46:39.473Z,17.63
2023-05-02T04:49:06.166Z,18.42
2023-05-02T04:51:32.924Z,21.05
2023-05-02T04:53:59.592Z,16.88
2023-05-02T04:56:26.276Z,17.45
2023-05-02T04:58:52.935Z,13.80
2023-05-02T05:01:20.860Z,23.13
2023-05-02T05:03:47.976Z,17.50
2023-05-02T05:06:14.775Z,14.65
2023-05-02T05:08:41.607Z,14.18
2023-05-02T05:11:08.310Z,14.50
2023-05-02T05:13:35.001Z,15.88
2023-05-02T05:16:02.299Z,11.05
2023-05-02T05:18:29.290Z,15.38
2023-05-02T05:20:56.034Z,14.07
2023-05-02T05:23:22.893Z,17.77
2023-05-02T05:25:49.587Z,17.02
2023-05-02T05:28:16.337Z,15.18
2023-05-02T05:30:43.030Z,15.10
2023-05-02T05:33:09.791Z,17.17
2023-05-02T05:35:36.739Z,19.40
2023-05-02T05:38:03.484Z,15.15
2023-05-02T05:40:30.236Z,15.60
2023-05-02T05:42:56.916Z,15.32
2023-05-02T05:45:23.601Z,16.13
2023-05-02T05:47:50.388Z,13.75
2023-05-02T05:50:17.121Z,15.80
2023-05-02T05:52:43.814Z,16.30
2023-05-02T05:55:11.125Z,12.52
2023-05-02T05:57:37.804Z,14.52
2023-05-02T06:00:05.075Z,14.65
2023-05-02T06:02:32.016Z,15.90
2023-05-02T06:04:58.897Z,12.80
2023-05-02T06:07:27.094Z,13.00
2023-05-02T06:09:53.745Z,13.02
2023-05-02T06:12:21.445Z,13.15
2023-05-02T06:14:48.139Z,12.77
2023-05-02T06:17:14.806Z,11.68
2023-05-02T06:19:41.737Z,13.95
2023-05-02T06:22:08.429Z,15.93
2023-05-02T06:24:35.095Z,13.35
2023-05-02T06:27:02.491Z,12.27
2023-05-02T06:29:29.171Z,14.85
2023-05-02T06:31:57.083Z,10.60
2023-05-02T06:34:24.882Z,11.55
2023-05-02T06:36:57.713Z,9.20
2023-05-02T06:39:24.645Z,15.20
2023-05-02T06:41:51.463Z,14.93
2023-05-02T06:44:18.243Z,13.05
2023-05-02T06:46:44.990Z,12.48
2023-05-02T06:49:11.755Z,9.82
2023-05-02T06:51:38.469Z,10.10
2023-05-02T06:54:06.139Z,9.75
2023-05-02T06:56:32.921Z,13.38
2023-05-02T06:58:59.678Z,11.40
2023-05-02T07:01:26.551Z,9.85
2023-05-02T07:03:53.975Z,13.60
2023-05-02T07:06:21.904Z,10.27
2023-05-02T07:08:48.787Z,8.68
2023-05-02T07:11:16.708Z,10.18
2023-05-02T07:13:43.544Z,10.57
2023-05-02T07:16:11.493Z,7.65
2023-05-02T07:18:38.204Z,8.70
2023-05-02T07:21:04.990Z,9.30
2023-05-02T07:23:31.761Z,6.15
2023-05-02T07:25:58.472Z,12.65
2023-05-02T07:28:26.509Z,8.40
2023-05-02T07:30:53.249Z,10.65
2023-05-02T07:33:20.033Z,9.07
2023-05-02T07:35:46.873Z,10.70
2023-05-02T07:38:13.752Z,10.40
2023-05-02T07:40:40.830Z,6.45
2023-05-02T07:43:09.862Z,5.18
2023-05-02T07:48:04.648Z,6.55
2023-05-02T07:50:31.496Z,8.93
2023-05-02T07:52:58.418Z,11.73
2023-05-02T07:55:28.724Z,10.73
2023-05-02T07:57:56.148Z,8.70
2023-05-02T08:00:22.905Z,9.15
2023-05-02T08:02:49.822Z,8.05
2023-05-02T08:05:16.854Z,8.65
2023-05-02T08:07:43.687Z,6.68
2023-05-02T08:10:10.788Z,12.20
2023-05-02T08:12:41.795Z,11.27
2023-05-02T08:15:11.605Z,8.15
2023-05-02T08:17:38.453Z,5.20
2023-05-02T08:20:05.659Z,7.75
2023-05-02T08:22:32.463Z,6.13
2023-05-02T08:24:59.190Z,7.03
2023-05-02T08:27:25.870Z,7.20
2023-05-02T08:29:52.828Z,5.63
2023-05-02T08:32:19.527Z,12.20
2023-05-02T08:34:46.201Z,6.90
2023-05-02T08:37:13.494Z,8.77
2023-05-02T08:39:40.258Z,5.90
2023-05-02T08:42:08.111Z,7.72
2023-05-02T08:44:35.039Z,14.30
2023-05-02T08:47:03.055Z,8.35
2023-05-02T08:49:32.044Z,7.28
2023-05-02T08:52:00.577Z,6.18
2023-05-02T08:54:27.843Z,6.35
2023-05-02T08:56:54.899Z,12.45
2023-05-02T08:59:21.720Z,8.65
2023-05-02T09:01:55.729Z,8.98
2023-05-02T09:04:24.541Z,6.95
2023-05-02T09:06:51.338Z,11.25
2023-05-02T09:09:19.201Z,5.68
2023-05-02T09:11:54.791Z,6.53
2023-05-02T09:14:23.028Z,7.28
2023-05-02T09:16:50.642Z,7.57
2023-05-02T09:19:27.065Z,7.80
2023-05-02T09:22:00.485Z,6.30
2023-05-02T09:24:29.829Z,5.40
2023-05-02T09:26:57.461Z,5.70
2023-05-02T09:29:24.324Z,10.75
2023-05-02T09:31:56.318Z,13.73
2023-05-02T09:34:23.939Z,6.47
2023-05-02T09:37:02.100Z,9.55
2023-05-02T09:39:29.568Z,9.48
2023-05-02T09:42:01.380Z,6.38
2023-05-02T09:44:45.285Z,13.35
2023-05-02T09:47:28.213Z,6.03
2023-05-02T09:50:19.578Z,10.55
2023-05-02T09:53:05.449Z,9.60
2023-05-02T09:55:43.244Z,9.07
2023-05-02T09:58:38.159Z,8.48
2023-05-02T10:01:24.581Z,8.65
2023-05-02T10:07:08.192Z,10.77
2023-05-02T10:09:39.029Z,8.65
2023-05-02T10:12:10.693Z,9.50
2023-05-02T10:14:41.825Z,10.95
2023-05-02T10:17:28.363Z,10.45
2023-05-02T10:20:04.008Z,8.00
2023-05-02T10:22:33.482Z,9.88
2023-05-02T10:25:02.187Z,11.82
2023-05-02T10:27:32.989Z,9.82
2023-05-02T10:30:01.144Z,7.22
2023-05-02T10:32:34.133Z,8.38
2023-05-02T10:35:05.794Z,5.78
2023-05-02T10:37:34.972Z,7.00
2023-05-02T10:40:02.361Z,9.07
2023-05-02T10:42:30.817Z,9.85
2023-05-02T10:45:00.029Z,7.40
2023-05-02T10:47:27.552Z,9.45
2023-05-02T10:49:57.708Z,9.88
2023-05-02T10:55:19.707Z,8.80
2023-05-02T10:58:01.356Z,9.70
2023-05-02T11:00:38.219Z,7.68
2023-05-02T11:03:05.196Z,10.80
2023-05-02T11:05:37.080Z,11.63
2023-05-02T11:08:15.874Z,8.23
2023-05-02T11:10:42.919Z,8.18
2023-05-02T11:13:10.813Z,7.65
2023-05-02T11:15:41.039Z,9.77
2023-05-02T11:18:10.053Z,10.35
2023-05-02T11:20:39.835Z,7.68
2023-05-02T11:23:15.881Z,9.85
2023-05-02T11:25:49.893Z,10.35
2023-05-02T11:28:39.188Z,8.55
2023-05-02T11:31:26.788Z,11.00
2023-05-02T11:34:01.035Z,8.70
2023-05-02T11:36:34.920Z,9.02
2023-05-02T11:39:03.572Z,8.20
2023-05-02T11:41:40.366Z,10.82
2023-05-02T11:44:07.376Z,8.18
2023-05-02T11:46:37.219Z,9.90
2023-05-02T11:51:32.996Z,8.23
2023-05-02T11:53:59.666Z,9.73
2023-05-02T11:56:27.166Z,13.07
2023-05-02T11:59:01.602Z,14.02
2023-05-02T12:01:28.399Z,9.82
2023-05-02T12:04:08.542Z,8.68
2023-05-02T12:06:36.087Z,14.38
2023-05-02T12:09:17.865Z,10.57
2023-05-02T12:11:45.155Z,10.95
2023-05-02T12:14:12.608Z,8.38
2023-05-02T12:16:39.531Z,10.05
2023-05-02T12:19:07.032Z,10.10
2023-05-02T12:21:34.183Z,10.23
2023-05-02T12:24:02.355Z,8.27
2023-05-02T12:26:33.991Z,9.80
2023-05-02T12:29:02.694Z,9.40
2023-05-02T12:31:31.347Z,7.72
2023-05-02T12:34:00.284Z,15.93
2023-05-02T12:36:28.741Z,11.05
2023-05-02T12:38:59.473Z,11.50
2023-05-02T12:41:37.973Z,11.45
2023-05-02T12:44:05.528Z,8.23
2023-05-02T12:46:32.768Z,7.72
2023-05-02T12:49:03.460Z,9.55
2023-05-02T12:51:31.548Z,7.32
2023-05-02T12:53:58.364Z,8.07
2023-05-02T12:56:28.022Z,11.25
2023-05-02T12:58:54.738Z,9.38
2023-05-02T13:01:21.572Z,12.50
2023-05-02T13:03:51.605Z,10.15
2023-05-02T13:08:45.908Z,8.52
2023-05-02T13:11:14.207Z,9.38
2023-05-02T13:13:41.036Z,10.98
2023-05-02T13:16:08.360Z,13.00
2023-05-02T13:18:35.252Z,10.35
2023-05-02T13:21:02.055Z,8.77
2023-05-02T13:23:28.818Z,22.52
2023-05-02T13:25:55.646Z,9.82
2023-05-02T13:28:22.388Z,13.10
2023-05-02T13:30:49.396Z,11.55
2023-05-02T13:33:16.656Z,10.15
2023-05-02T13:35:43.587Z,9.52
2023-05-02T13:38:10.466Z,10.75
2023-05-02T13:40:38.093Z,9.50
2023-05-02T13:43:04.755Z,12.35
2023-05-02T13:45:31.561Z,9.93
2023-05-02T13:47:58.321Z,8.85
2023-05-02T13:50:25.109Z,9.02
2023-05-02T13:52:51.869Z,11.82
2023-05-02T13:55:18.684Z,32.65
2023-05-02T13:57:45.487Z,10.35
2023-05-02T14:00:12.708Z,14.65
2023-05-02T14:02:39.656Z,10.98
2023-05-02T14:05:07.111Z,7.65
2023-05-02T14:07:33.928Z,12.27
2023-05-02T14:10:01.040Z,11.80
2023-05-02T14:12:29.126Z,10.95
2023-05-02T14:14:59.217Z,9.70
2023-05-02T14:19:53.338Z,12.15
2023-05-02T14:22:20.088Z,8.85
2023-05-02T14:24:46.957Z,10.38
2023-05-02T14:27:18.135Z,17.88
2023-05-02T14:29:48.371Z,12.77
2023-05-02T14:34:42.034Z,10.05
2023-05-02T14:37:09.213Z,9.35
2023-05-02T14:39:36.873Z,13.05
2023-05-02T14:42:04.313Z,8.50
2023-05-02T14:44:31.240Z,13.30
2023-05-02T14:46:58.114Z,14.95
2023-05-02T14:49:25.417Z,8.40
2023-05-02T14:51:52.753Z,13.93
2023-05-02T14:54:20.317Z,12.13
2023-05-02T14:56:48.229Z,10.93
2023-05-02T14:59:15.066Z,12.75
2023-05-02T15:01:41.870Z,9.77
2023-05-02T15:04:10.768Z,11.40
2023-05-02T15:06:38.224Z,10.05
2023-05-02T15:09:05.232Z,11.57
2023-05-02T15:11:32.080Z,11.18
2023-05-02T15:13:59.480Z,8.48
2023-05-02T15:16:29.238Z,9.15
2023-05-02T15:18:56.205Z,12.70
2023-05-02T15:21:23.091Z,9.27
2023-05-02T15:23:49.907Z,11.90
2023-05-02T15:26:16.819Z,10.75
2023-05-02T15:28:43.583Z,10.00
2023-05-02T15:31:10.343Z,12.40
2023-05-02T15:33:38.099Z,8.45
2023-05-02T15:36:04.971Z,11.15
2023-05-02T15:38:34.008Z,9.02
2023-05-02T15:41:01.112Z,8.93
2023-05-02T15:43:27.994Z,12.95
2023-05-02T15:45:58.949Z,15.32
2023-05-02T15:48:30.362Z,11.10
2023-05-02T15:50:57.598Z,12.23
2023-05-02T15:53:24.373Z,16.05
2023-05-02T15:55:52.358Z,12.48
2023-05-02T15:58:19.699Z,23.27
2023-05-02T16:00:49.713Z,34.40
2023-05-02T16:03:16.481Z,17.27
2023-05-02T16:05:43.238Z,16.15
2023-05-02T16:08:10.136Z,10.93
2023-05-02T16:10:39.246Z,9.82
2023-05-02T16:13:06.168Z,11.85
2023-05-02T16:15:32.878Z,6.55
2023-05-02T16:17:59.738Z,10.13
2023-05-02T16:20:27.713Z,8.55
2023-05-02T16:22:54.473Z,7.47
2023-05-02T16:25:21.241Z,9.73
2023-05-02T16:27:47.986Z,9.68
2023-05-02T16:30:15.005Z,10.60
2023-05-02T16:32:41.670Z,10.45
2023-05-02T16:35:12.254Z,6.72
2023-05-02T16:37:40.927Z,7.68
2023-05-02T16:40:11.241Z,8.73
2023-05-02T16:42:38.619Z,8.45
2023-05-02T16:45:06.261Z,8.75
2023-05-02T16:47:36.235Z,9.65
2023-05-02T16:50:03.503Z,9.55
2023-05-02T16:52:30.500Z,11.65
2023-05-02T16:54:57.210Z,9.95
2023-05-02T16:57:24.067Z,11.43
2023-05-02T16:59:52.189Z,8.77
2023-05-02T17:02:20.934Z,8.75
2023-05-02T17:04:49.781Z,7.13
2023-05-02T17:07:16.940Z,17.42
2023-05-02T17:09:44.514Z,11.55
2023-05-02T17:12:12.550Z,13.38
2023-05-02T17:14:41.174Z,15.18
2023-05-02T17:17:08.596Z,60.22
2023-05-02T17:19:35.972Z,36.60
2023-05-02T17:22:04.898Z,26.38
2023-05-02T17:24:31.844Z,14.60
2023-05-02T17:26:58.688Z,15.07
2023-05-02T17:29:25.680Z,13.85
2023-05-02T17:31:52.483Z,10.95
2023-05-02T17:34:19.362Z,15.32
2023-05-02T17:36:47.131Z,16.13
2023-05-02T17:39:15.879Z,16.85
2023-05-02T17:41:42.558Z,16.35
2023-05-02T17:44:09.233Z,20.67
2023-05-02T17:46:36.377Z,17.13
2023-05-02T17:49:03.140Z,16.77
2023-05-02T17:51:30.034Z,18.63
2023-05-02T17:53:57.277Z,19.88
2023-05-02T17:56:23.970Z,17.35
2023-05-02T17:58:50.804Z,21.63
2023-05-02T18:01:17.882Z,17.02
2023-05-02T18:03:45.330Z,16.30
2023-05-02T18:06:16.638Z,18.92
2023-05-02T18:08:44.440Z,18.98
2023-05-02T18:11:20.964Z,16.55
2023-05-02T18:13:49.508Z,16.77
2023-05-02T18:16:16.375Z,17.15
2023-05-02T18:18:43.135Z,21.25
2023-05-02T18:21:10.096Z,16.38
2023-05-02T18:23:36.924Z,21.13
2023-05-02T18:26:04.061Z,17.02
2023-05-02T18:28:30.772Z,20.05
2023-05-02T18:30:57.528Z,17.58
2023-05-02T18:33:24.394Z,18.58
2023-05-02T18:35:51.134Z,16.25
2023-05-02T18:38:18.132Z,18.50
2023-05-02T18:40:45.051Z,17.25
2023-05-02T18:43:12.017Z,19.95
2023-05-02T18:45:38.842Z,17.00
2023-05-02T18:48:05.835Z,19.92
2023-05-02T18:50:32.656Z,22.85
2023-05-02T18:52:59.330Z,18.65
2023-05-02T18:55:26.201Z,18.20
2023-05-02T18:57:52.948Z,18.70
2023-05-02T19:00:20.404Z,16.75
2023-05-02T19:02:47.735Z,18.08
2023-05-02T19:05:15.067Z,19.80
2023-05-02T19:07:42.437Z,17.40
2023-05-02T19:10:11.018Z,20.83
2023-05-02T19:12:38.110Z,20.90
2023-05-02T19:15:06.753Z,18.27
2023-05-02T19:17:33.727Z,21.17
2023-05-02T19:20:00.568Z,21.90
2023-05-02T19:22:27.896Z,25.15
2023-05-02T19:24:55.138Z,23.15
2023-05-02T19:27:21.880Z,21.98
2023-05-02T19:29:48.577Z,23.45
2023-05-02T19:32:15.905Z,22.25
2023-05-02T19:34:42.676Z,25.13
2023-05-02T19:37:09.391Z,22.23
2023-05-02T19:39:36.094Z,22.92
2023-05-02T19:42:03.270Z,23.00
2023-05-02T19:44:30.292Z,26.67
2023-05-02T19:46:57.130Z,27.65
2023-05-02T19:49:23.910Z,26.95
2023-05-02T19:51:50.628Z,28.13
2023-05-02T19:54:17.349Z,23.38
2023-05-02T19:56:44.320Z,22.35
2023-05-02T19:59:11.141Z,25.13
2023-05-02T20:01:38.036Z,22.88
2023-05-02T20:04:04.841Z,22.17
2023-05-02T20:06:32.230Z,23.23
2023-05-02T20:08:59.203Z,27.30
2023-05-02T20:11:26.266Z,25.40
2023-05-02T20:13:54.357Z,22.35
2023-05-02T20:16:21.222Z,22.55
2023-05-02T20:18:48.013Z,24.92
2023-05-02T20:21:15.080Z,22.73
2023-05-02T20:23:43.413Z,22.08
2023-05-02T20:26:10.591Z,24.73
2023-05-02T20:28:37.891Z,21.48
2023-05-02T20:31:05.168Z,21.48
2023-05-02T20:33:43.780Z,23.80
2023-05-02T20:36:13.329Z,21.40
2023-05-02T20:38:42.351Z,21.90
2023-05-02T20:41:12.511Z,24.33
2023-05-02T20:43:41.174Z,23.50
2023-05-02T20:46:12.313Z,23.38
2023-05-02T20:48:39.389Z,19.33
2023-05-02T20:51:06.668Z,23.75
2023-05-02T20:53:33.473Z,19.05
2023-05-02T20:56:00.149Z,21.92
2023-05-02T20:58:26.918Z,20.88
2023-05-02T21:00:54.084Z,25.52
2023-05-02T21:03:21.468Z,22.25
2023-05-02T21:05:55.997Z,20.85
2023-05-02T21:08:23.273Z,18.63
2023-05-02T21:10:50.370Z,21.23
2023-05-02T21:13:17.545Z,18.98
2023-05-02T21:15:44.358Z,17.27
2023-05-02T21:18:11.414Z,15.85
2023-05-02T21:20:39.629Z,14.85
2023-05-02T21:23:06.457Z,17.73
2023-05-02T21:25:33.682Z,16.90
2023-05-02T21:28:00.586Z,14.23
2023-05-02T21:30:27.317Z,16.42
2023-05-02T21:32:54.080Z,15.85
2023-05-02T21:35:20.953Z,19.38
2023-05-02T21:37:47.683Z,14.52
2023-05-02T21:40:14.444Z,16.60
2023-05-02T21:42:41.381Z,15.57
2023-05-02T21:45:08.737Z,15.43
2023-05-02T21:47:35.534Z,14.63
2023-05-02T21:50:02.490Z,14.98
2023-05-02T21:52:29.348Z,14.00
2023-05-02T21:54:57.379Z,14.02
2023-05-02T21:57:24.086Z,17.42
2023-05-02T21:59:50.846Z,12.95
2023-05-02T22:02:17.687Z,11.10
2023-05-02T22:04:48.066Z,13.93
2023-05-02T22:09:42.837Z,14.55
2023-05-02T22:12:09.580Z,18.73
2023-05-02T22:14:44.229Z,17.30
2023-05-02T22:17:12.759Z,17.10
2023-05-02T22:19:39.859Z,17.52
2023-05-02T22:22:07.017Z,22.60
2023-05-02T22:24:34.196Z,20.58
2023-05-02T22:27:01.630Z,17.42
2023-05-02T22:29:29.260Z,19.98
2023-05-02T22:31:56.095Z,18.38
2023-05-02T22:34:23.155Z,21.02
2023-05-02T22:36:50.097Z,19.45
2023-05-02T22:39:16.785Z,20.67
2023-05-02T22:41:43.722Z,19.67
2023-05-02T22:44:11.379Z,21.13
2023-05-02T22:46:39.065Z,19.30
2023-05-02T22:49:11.288Z,19.50
2023-05-02T22:51:40.329Z,18.83
2023-05-02T22:54:08.036Z,19.48
2023-05-02T22:56:35.048Z,18.98
2023-05-02T22:59:01.875Z,23.50
2023-05-02T23:01:28.845Z,22.50
2023-05-02T23:03:55.850Z,23.60
2023-05-02T23:06:22.941Z,24.33
2023-05-02T23:08:49.739Z,22.10
2023-05-02T23:11:16.739Z,20.67
2023-05-02T23:13:43.566Z,25.38
2023-05-02T23:16:10.390Z,21.80
2023-05-02T23:18:37.132Z,24.13
2023-05-02T23:21:04.723Z,24.17
2023-05-02T23:23:31.640Z,24.35
2023-05-02T23:25:58.659Z,23.05
2023-05-02T23:28:26.156Z,22.42
2023-05-02T23:30:53.663Z,26.92
2023-05-02T23:33:20.911Z,21.95
2023-05-02T23:35:48.246Z,24.13
2023-05-02T23:38:15.222Z,22.33
2023-05-02T23:40:42.283Z,24.20
2023-05-02T23:43:09.456Z,23.38
2023-05-02T23:45:36.225Z,24.17
2023-05-02T23:48:03.218Z,23.52
2023-05-02T23:50:30.880Z,19.83
2023-05-02T23:52:57.603Z,20.85
2023-05-02T23:55:24.478Z,21.42
2023-05-02T23:57:51.145Z,21.02
